Time;durP1;ratioP1;P1;durP2;ratioP2;P2;SDS_P1;SDS_P2;PMS_P1;PMS_P2;Temp;Humidity;BMP_temperature;BMP_pressure;BME280_temperature;BME280_humidity;BME280_pressure;Samples;Min_cycle;Max_cycle;Signal;HPM_P1;HPM_P2
2024/01/29 00:00:16;;;;;;;7.70;4.00;;;;;;;;;;7346230;19;20324;-46
2024/01/29 00:02:46;;;;;;;10.75;3.92;;;;;;;;;;7323474;19;20312;-45
2024/01/29 00:05:15;;;;;;;8.98;3.58;;;;;;;;;;7343637;19;20329;-47
2024/01/29 00:07:45;;;;;;;14.25;5.30;;;;;;;;;;7322297;19;20307;-48
2024/01/29 00:10:14;;;;;;;13.30;5.30;;;;;;;;;;7346938;19;20329;-45
2024/01/29 00:12:44;;;;;;;10.50;4.87;;;;;;;;;;7323677;19;20289;-44
2024/01/29 00:15:16;;;;;;;11.40;4.00;;;;;;;;;;7346754;19;20328;-45
2024/01/29 00:17:46;;;;;;;11.18;3.70;;;;;;;;;;7323866;19;20384;-46
2024/01/29 00:20:15;;;;;;;9.73;3.97;;;;;;;;;;7345627;19;20404;-46
2024/01/29 00:22:45;;;;;;;9.63;3.80;;;;;;;;;;7323025;19;20385;-51
2024/01/29 00:25:15;;;;;;;10.43;5.10;;;;;;;;;;7346285;19;20391;-45
2024/01/29 00:27:44;;;;;;;9.40;4.00;;;;;;;;;;7322621;19;20297;-44
2024/01/29 00:30:16;;;;;;;12.07;5.63;;;;;;;;;;7343440;19;20317;-45
2024/01/29 00:32:46;;;;;;;8.73;3.63;;;;;;;;;;7323922;19;20285;-44
2024/01/29 00:35:15;;;;;;;6.60;3.38;;;;;;;;;;7343102;19;20408;-46
2024/01/29 00:37:44;;;;;;;11.05;4.53;;;;;;;;;;7322061;19;20840;-45
2024/01/29 00:40:14;;;;;;;8.15;3.88;;;;;;;;;;7345518;19;20329;-46
2024/01/29 00:42:44;;;;;;;8.70;4.20;;;;;;;;;;7322612;19;20899;-44
2024/01/29 00:45:13;;;;;;;9.60;4.15;;;;;;;;;;7345673;19;20336;-48
2024/01/29 00:47:45;;;;;;;11.10;3.92;;;;;;;;;;7322351;19;20330;-44
2024/01/29 00:50:15;;;;;;;10.45;3.47;;;;;;;;;;7345331;19;20431;-49
2024/01/29 00:52:44;;;;;;;11.55;4.40;;;;;;;;;;7322194;19;20343;-44
2024/01/29 00:55:14;;;;;;;7.00;3.40;;;;;;;;;;7345425;19;20329;-49
2024/01/29 00:57:43;;;;;;;11.40;4.80;;;;;;;;;;7321671;19;20300;-48
2024/01/29 01:00:14;;;;;;;6.38;3.25;;;;;;;;;;7345204;19;20345;-49
2024/01/29 01:02:46;;;;;;;11.55;4.22;;;;;;;;;;7320209;19;20312;-46
2024/01/29 01:05:15;;;;;;;9.18;3.00;;;;;;;;;;7342929;19;20695;-45
2024/01/29 01:07:45;;;;;;;10.10;3.90;;;;;;;;;;7320226;19;20308;-44
2024/01/29 01:10:14;;;;;;;9.05;3.60;;;;;;;;;;7345427;19;20343;-47
2024/01/29 01:12:44;;;;;;;6.70;3.30;;;;;;;;;;7322180;19;20419;-48
2024/01/29 01:15:13;;;;;;;8.75;3.40;;;;;;;;;;7345303;19;20430;-46
2024/01/29 01:17:45;;;;;;;10.93;3.92;;;;;;;;;;7321335;19;20300;-45
2024/01/29 01:20:15;;;;;;;9.40;3.47;;;;;;;;;;7344787;19;20751;-44
2024/01/29 01:22:44;;;;;;;12.60;6.10;;;;;;;;;;7321353;19;20321;-45
2024/01/29 01:25:13;;;;;;;10.97;3.97;;;;;;;;;;7344080;19;20420;-47
2024/01/29 01:27:43;;;;;;;7.57;3.38;;;;;;;;;;7320867;19;20293;-46
2024/01/29 01:30:13;;;;;;;7.85;3.40;;;;;;;;;;7344630;19;20396;-49
2024/01/29 01:32:45;;;;;;;7.10;3.13;;;;;;;;;;7320939;19;20988;-45
2024/01/29 01:35:15;;;;;;;8.05;3.30;;;;;;;;;;7342575;19;20332;-46
2024/01/29 01:37:44;;;;;;;10.32;3.50;;;;;;;;;;7320550;19;20984;-45
2024/01/29 01:40:14;;;;;;;9.80;3.90;;;;;;;;;;7344081;19;20405;-48
2024/01/29 01:42:44;;;;;;;8.73;3.30;;;;;;;;;;7327222;19;20368;-47
2024/01/29 01:45:13;;;;;;;10.38;4.05;;;;;;;;;;7350160;19;20371;-46
2024/01/29 01:47:45;;;;;;;10.13;4.80;;;;;;;;;;7327203;19;20307;-44
2024/01/29 01:50:15;;;;;;;9.43;3.00;;;;;;;;;;7351702;19;20388;-44
2024/01/29 01:52:45;;;;;;;9.63;4.35;;;;;;;;;;7327428;19;20384;-48
2024/01/29 01:55:14;;;;;;;7.70;2.80;;;;;;;;;;7350885;19;20386;-46
2024/01/29 01:57:45;;;;;;;7.30;3.10;;;;;;;;;;7327078;19;20301;-46
2024/01/29 02:00:15;;;;;;;6.82;3.05;;;;;;;;;;7350596;19;20328;-48
2024/01/29 02:02:47;;;;;;;7.57;3.40;;;;;;;;;;7327623;19;20325;-47
2024/01/29 02:05:17;;;;;;;6.65;2.90;;;;;;;;;;7348862;19;20396;-48
2024/01/29 02:07:46;;;;;;;8.90;3.10;;;;;;;;;;7328016;19;20292;-45
2024/01/29 02:10:16;;;;;;;6.45;3.05;;;;;;;;;;7350463;19;20321;-46
2024/01/29 02:12:45;;;;;;;8.05;2.95;;;;;;;;;;7328726;19;20379;-48
2024/01/29 02:15:15;;;;;;;8.80;3.20;;;;;;;;;;7348836;19;20321;-34
2024/01/29 02:17:47;;;;;;;8.57;3.50;;;;;;;;;;7324999;19;20305;-34
2024/01/29 02:20:17;;;;;;;5.95;2.97;;;;;;;;;;7349578;19;20340;-37
2024/01/29 02:22:49;;;;;;;6.57;2.53;;;;;;;;;;7329088;19;20300;-34
2024/01/29 02:25:19;;;;;;;6.10;2.90;;;;;;;;;;7349404;19;20329;-34
2024/01/29 02:27:48;;;;;;;5.25;2.30;;;;;;;;;;7327032;19;20320;-34
2024/01/29 02:30:18;;;;;;;8.02;3.92;;;;;;;;;;7348713;19;20363;-34
2024/01/29 02:32:47;;;;;;;7.78;2.78;;;;;;;;;;7328781;19;20363;-34
2024/01/29 02:35:16;;;;;;;6.30;2.80;;;;;;;;;;7345094;19;20344;-34
2024/01/29 02:37:48;;;;;;;9.13;4.00;;;;;;;;;;7328124;19;20297;-34
2024/01/29 02:40:18;;;;;;;5.30;2.50;;;;;;;;;;7348753;19;20324;-34
2024/01/29 02:42:47;;;;;;;8.27;2.85;;;;;;;;;;7327659;19;20401;-35
2024/01/29 02:45:14;;;;;;;8.85;3.60;;;;;;;;;;7349122;19;20320;-35
2024/01/29 02:47:44;;;;;;;5.78;2.70;;;;;;;;;;7326588;19;20340;-34
2024/01/29 02:50:13;;;;;;;8.65;2.95;;;;;;;;;;7348949;19;20366;-34
2024/01/29 02:52:43;;;;;;;5.90;2.60;;;;;;;;;;7324294;19;20901;-34
2024/01/29 02:55:15;;;;;;;6.37;2.50;;;;;;;;;;7341046;19;20892;-34
2024/01/29 02:57:44;;;;;;;5.70;2.40;;;;;;;;;;7325871;19;20679;-34
2024/01/29 03:00:14;;;;;;;5.20;2.40;;;;;;;;;;7349625;19;20367;-36
2024/01/29 03:02:43;;;;;;;9.38;4.20;;;;;;;;;;7326253;19;20309;-35
2024/01/29 03:05:13;;;;;;;8.02;2.65;;;;;;;;;;7348277;19;20321;-35
2024/01/29 03:07:42;;;;;;;6.90;2.78;;;;;;;;;;7324277;19;20278;-34
2024/01/29 03:10:12;;;;;;;6.65;2.90;;;;;;;;;;7348405;19;20304;-35
2024/01/29 03:12:44;;;;;;;11.10;3.30;;;;;;;;;;7326083;19;20294;-34
2024/01/29 03:15:13;;;;;;;6.80;2.57;;;;;;;;;;7348998;19;20317;-35
2024/01/29 03:17:43;;;;;;;7.38;3.05;;;;;;;;;;7324824;19;20297;-34
2024/01/29 03:20:13;;;;;;;7.95;3.20;;;;;;;;;;7348093;19;20336;-35
2024/01/29 03:22:42;;;;;;;7.80;2.80;;;;;;;;;;7325245;19;20282;-35
2024/01/29 03:25:12;;;;;;;6.03;2.50;;;;;;;;;;7348396;19;20343;-35
2024/01/29 03:27:44;;;;;;;6.40;2.90;;;;;;;;;;7324867;19;20286;-34
2024/01/29 03:30:14;;;;;;;6.18;2.45;;;;;;;;;;7347886;19;20328;-34
2024/01/29 03:32:44;;;;;;;9.27;3.50;;;;;;;;;;7325273;19;20305;-35
2024/01/29 03:35:13;;;;;;;9.15;4.20;;;;;;;;;;7345725;19;20335;-34
2024/01/29 03:37:46;;;;;;;6.75;2.58;;;;;;;;;;7324358;19;20383;-34
2024/01/29 03:40:16;;;;;;;6.03;2.20;;;;;;;;;;7348323;19;20401;-34
2024/01/29 03:42:48;;;;;;;6.30;2.25;;;;;;;;;;7324804;19;20382;-34
2024/01/29 03:45:17;;;;;;;4.85;2.00;;;;;;;;;;7346953;19;20703;-34
2024/01/29 03:47:47;;;;;;;6.30;2.67;;;;;;;;;;7324775;19;20300;-34
2024/01/29 03:50:16;;;;;;;5.95;2.30;;;;;;;;;;7347597;19;20405;-34
2024/01/29 03:52:47;;;;;;;5.40;2.30;;;;;;;;;;7326145;19;20293;-34
2024/01/29 03:55:17;;;;;;;7.40;2.40;;;;;;;;;;7347655;19;20961;-35
2024/01/29 03:57:49;;;;;;;7.03;3.30;;;;;;;;;;7324774;19;20293;-34
2024/01/29 04:00:20;;;;;;;8.25;3.03;;;;;;;;;;7343605;19;20359;-34
2024/01/29 04:02:49;;;;;;;5.80;2.50;;;;;;;;;;7325928;19;20301;-34
2024/01/29 04:05:19;;;;;;;6.43;2.90;;;;;;;;;;7346396;19;20321;-35
2024/01/29 04:07:48;;;;;;;6.63;2.50;;;;;;;;;;7325535;19;20360;-35
2024/01/29 04:10:18;;;;;;;8.68;3.33;;;;;;;;;;7347275;19;20333;-35
2024/01/29 04:12:50;;;;;;;7.20;2.90;;;;;;;;;;7325509;19;20873;-34
2024/01/29 04:15:20;;;;;;;6.00;2.63;;;;;;;;;;7346965;19;20344;-34
2024/01/29 04:17:49;;;;;;;4.75;2.30;;;;;;;;;;7326254;19;20333;-34
2024/01/29 04:20:19;;;;;;;7.95;3.30;;;;;;;;;;7346051;19;20321;-34
2024/01/29 04:22:48;;;;;;;7.43;2.75;;;;;;;;;;7325119;19;20376;-34
2024/01/29 04:25:17;;;;;;;6.37;2.37;;;;;;;;;;7345769;19;20385;-35
2024/01/29 04:27:48;;;;;;;4.82;2.40;;;;;;;;;;7323361;19;20365;-34
2024/01/29 04:30:21;;;;;;;7.30;2.80;;;;;;;;;;7345490;19;20864;-34
2024/01/29 04:32:50;;;;;;;12.60;4.45;;;;;;;;;;7324892;19;20292;-35
2024/01/29 04:35:19;;;;;;;7.32;2.70;;;;;;;;;;7343475;19;20353;-34
2024/01/29 04:37:49;;;;;;;5.90;2.78;;;;;;;;;;7323741;19;20288;-34
2024/01/29 04:40:18;;;;;;;7.15;2.80;;;;;;;;;;7346039;19;20337;-35
2024/01/29 04:42:48;;;;;;;7.15;2.90;;;;;;;;;;7323947;19;20709;-34
2024/01/29 04:45:17;;;;;;;5.13;2.50;;;;;;;;;;7345425;19;20328;-34
2024/01/29 04:47:49;;;;;;;6.43;2.95;;;;;;;;;;7322990;19;20297;-34
2024/01/29 04:50:18;;;;;;;5.57;2.55;;;;;;;;;;7345474;19;20329;-34
2024/01/29 04:52:48;;;;;;;4.63;2.10;;;;;;;;;;7323934;19;20357;-35
2024/01/29 04:55:17;;;;;;;6.13;2.87;;;;;;;;;;7346617;19;20679;-35
2024/01/29 04:57:47;;;;;;;5.72;2.60;;;;;;;;;;7323393;19;20308;-35
2024/01/29 05:00:17;;;;;;;7.93;2.60;;;;;;;;;;7344629;19;20324;-34
2024/01/29 05:02:47;;;;;;;5.30;2.40;;;;;;;;;;7322383;19;20353;-34
2024/01/29 05:05:19;;;;;;;9.02;4.13;;;;;;;;;;7344813;19;20866;-34
2024/01/29 05:07:51;;;;;;;6.57;2.58;;;;;;;;;;7320848;19;20822;-34
2024/01/29 05:10:21;;;;;;;5.50;2.50;;;;;;;;;;7343694;19;20932;-32
2024/01/29 05:12:50;;;;;;;6.63;2.47;;;;;;;;;;7344183;19;20300;-34
2024/01/29 05:15:20;;;;;;;5.88;2.70;;;;;;;;;;7343402;19;20902;-34
2024/01/29 05:17:49;;;;;;;5.83;2.43;;;;;;;;;;7320953;19;20297;-34
2024/01/29 05:20:21;;;;;;;6.55;2.50;;;;;;;;;;7344385;19;20861;-34
2024/01/29 05:22:51;;;;;;;6.55;2.65;;;;;;;;;;7323533;19;20300;-34
2024/01/29 05:25:20;;;;;;;4.90;2.30;;;;;;;;;;7344389;19;20324;-34
2024/01/29 05:27:49;;;;;;;7.70;2.75;;;;;;;;;;7321943;19;20308;-34
2024/01/29 05:30:19;;;;;;;13.43;5.55;;;;;;;;;;7344514;19;20325;-35
2024/01/29 05:32:49;;;;;;;6.15;2.60;;;;;;;;;;7322941;19;20292;-34
2024/01/29 05:35:18;;;;;;;6.72;2.50;;;;;;;;;;7343027;19;20416;-34
2024/01/29 05:37:50;;;;;;;9.63;3.60;;;;;;;;;;7321569;19;20368;-35
2024/01/29 05:40:20;;;;;;;5.13;2.40;;;;;;;;;;7344160;19;20628;-34
2024/01/29 05:42:52;;;;;;;9.35;3.40;;;;;;;;;;7321936;19;20297;-34
2024/01/29 05:45:22;;;;;;;9.10;2.65;;;;;;;;;;7331607;19;20391;-34
2024/01/29 05:47:51;;;;;;;6.68;2.80;;;;;;;;;;7342788;19;20362;-34
2024/01/29 05:50:21;;;;;;;6.18;2.33;;;;;;;;;;7341515;19;20392;-31
2024/01/29 05:52:53;;;;;;;7.05;2.30;;;;;;;;;;7342211;19;20301;-34
2024/01/29 05:55:22;;;;;;;6.38;2.40;;;;;;;;;;7325105;19;20332;-34
2024/01/29 05:57:52;;;;;;;7.20;2.70;;;;;;;;;;7342647;19;20292;-35
2024/01/29 06:00:22;;;;;;;9.35;3.40;;;;;;;;;;7336835;19;20364;-34
2024/01/29 06:02:52;;;;;;;10.75;4.60;;;;;;;;;;7342638;19;20313;-34
2024/01/29 06:05:21;;;;;;;7.03;3.05;;;;;;;;;;7337806;19;20332;-34
2024/01/29 06:07:55;;;;;;;6.25;2.40;;;;;;;;;;7341322;19;20846;-34
2024/01/29 06:10:22;;;;;;;5.80;2.60;;;;;;;;;;7319986;19;21138;-34
2024/01/29 06:12:53;;;;;;;10.32;4.30;;;;;;;;;;7341991;19;20304;-34
2024/01/29 06:15:23;;;;;;;8.43;3.00;;;;;;;;;;7323354;19;20320;-34
2024/01/29 06:17:52;;;;;;;8.40;3.70;;;;;;;;;;7341853;19;20879;-34
2024/01/29 06:20:21;;;;;;;7.43;2.93;;;;;;;;;;7334287;19;20469;-33
2024/01/29 06:22:54;;;;;;;6.47;2.53;;;;;;;;;;7342131;19;20317;-34
2024/01/29 06:25:23;;;;;;;7.10;3.05;;;;;;;;;;7319794;19;20360;-34
2024/01/29 06:27:52;;;;;;;7.43;2.60;;;;;;;;;;7343036;19;20662;-34
2024/01/29 06:30:22;;;;;;;7.70;3.10;;;;;;;;;;7335341;19;20340;-34
2024/01/29 06:32:52;;;;;;;7.95;3.45;;;;;;;;;;7348655;19;20304;-34
2024/01/29 06:35:23;;;;;;;6.15;2.55;;;;;;;;;;7345695;19;20325;-31
2024/01/29 06:37:55;;;;;;;6.80;2.60;;;;;;;;;;7348176;19;20305;-34
2024/01/29 06:40:27;;;;;;;6.07;2.58;;;;;;;;;;7325928;19;20325;-34
2024/01/29 06:42:58;;;;;;;8.50;2.90;;;;;;;;;;7343698;19;20337;-34
2024/01/29 06:45:28;;;;;;;5.53;2.13;;;;;;;;;;7325974;19;20746;-34
2024/01/29 06:47:58;;;;;;;9.07;3.10;;;;;;;;;;7347335;19;20301;-34
2024/01/29 06:50:28;;;;;;;5.38;2.53;;;;;;;;;;7325718;19;20333;-37
2024/01/29 06:53:00;;;;;;;5.80;2.80;;;;;;;;;;7347609;19;20293;-34
2024/01/29 06:55:29;;;;;;;6.05;2.15;;;;;;;;;;7319551;19;20333;-34
2024/01/29 06:57:58;;;;;;;6.00;2.60;;;;;;;;;;7346795;19;20396;-34
2024/01/29 07:00:28;;;;;;;8.47;2.70;;;;;;;;;;7325274;19;20348;-34
2024/01/29 07:02:57;;;;;;;6.22;2.47;;;;;;;;;;7347682;19;20322;-34
2024/01/29 07:05:26;;;;;;;5.85;2.10;;;;;;;;;;7324200;19;20325;-34
2024/01/29 07:07:56;;;;;;;8.52;2.95;;;;;;;;;;7346890;19;20395;-34
2024/01/29 07:10:28;;;;;;;5.77;2.47;;;;;;;;;;7325311;19;20325;-34
2024/01/29 07:12:57;;;;;;;7.60;3.30;;;;;;;;;;7347527;19;20308;-34
2024/01/29 07:15:27;;;;;;;6.60;2.60;;;;;;;;;;7324516;19;20990;-34
2024/01/29 07:17:57;;;;;;;7.03;3.00;;;;;;;;;;7346911;19;20297;-35
2024/01/29 07:20:29;;;;;;;8.85;2.35;;;;;;;;;;7324973;19;20332;-34
2024/01/29 07:22:59;;;;;;;9.73;2.70;;;;;;;;;;7348195;19;20996;-35
2024/01/29 07:25:31;;;;;;;6.22;2.60;;;;;;;;;;7324541;19;20321;-34
2024/01/29 07:28:03;;;;;;;8.37;3.23;;;;;;;;;;7346434;19;20650;-36
2024/01/29 07:30:32;;;;;;;6.72;2.70;;;;;;;;;;7324840;19;20329;-34
2024/01/29 07:33:02;;;;;;;6.32;2.38;;;;;;;;;;7347067;19;20301;-34
2024/01/29 07:35:32;;;;;;;7.88;2.75;;;;;;;;;;7323720;19;20328;-39
2024/01/29 07:38:02;;;;;;;7.78;3.08;;;;;;;;;;7347449;19;20324;-34
2024/01/29 07:40:34;;;;;;;8.43;3.53;;;;;;;;;;7323418;19;20339;-34
2024/01/29 07:43:04;;;;;;;9.98;4.68;;;;;;;;;;7346491;19;20372;-34
2024/01/29 07:45:33;;;;;;;7.25;2.90;;;;;;;;;;7324293;19;20340;-35
2024/01/29 07:48:04;;;;;;;6.63;2.65;;;;;;;;;;7346421;19;20657;-34
2024/01/29 07:50:35;;;;;;;9.15;3.40;;;;;;;;;;7323327;19;20757;-34
2024/01/29 07:53:04;;;;;;;7.15;2.30;;;;;;;;;;7346773;19;20317;-34
2024/01/29 07:55:38;;;;;;;6.77;2.53;;;;;;;;;;7323395;19;20344;-34
2024/01/29 07:58:08;;;;;;;7.07;2.60;;;;;;;;;;7345563;19;20348;-34
2024/01/29 08:00:37;;;;;;;8.57;2.97;;;;;;;;;;7324975;19;20403;-34
2024/01/29 08:03:09;;;;;;;5.37;2.60;;;;;;;;;;7344644;19;20329;-34
2024/01/29 08:05:38;;;;;;;6.77;2.70;;;;;;;;;;7324301;19;20343;-34
2024/01/29 08:08:08;;;;;;;7.63;2.97;;;;;;;;;;7345379;19;20400;-34
2024/01/29 08:10:40;;;;;;;9.00;2.75;;;;;;;;;;7320647;19;20417;-34
2024/01/29 08:13:10;;;;;;;5.90;2.47;;;;;;;;;;7346590;19;20387;-34
2024/01/29 08:15:39;;;;;;;8.10;2.50;;;;;;;;;;7321367;19;20364;-34
2024/01/29 08:18:09;;;;;;;7.30;2.80;;;;;;;;;;7345648;19;20301;-34
2024/01/29 08:20:38;;;;;;;6.78;2.75;;;;;;;;;;7324087;19;20880;-34
2024/01/29 08:23:08;;;;;;;6.68;3.30;;;;;;;;;;7346492;19;20321;-34
2024/01/29 08:25:40;;;;;;;8.75;3.25;;;;;;;;;;7323492;19;20369;-34
2024/01/29 08:28:11;;;;;;;8.38;2.80;;;;;;;;;;7345747;19;20304;-34
2024/01/29 08:30:40;;;;;;;6.70;2.90;;;;;;;;;;7323509;19;20331;-34
2024/01/29 08:33:10;;;;;;;7.35;2.50;;;;;;;;;;7344335;19;20300;-34
2024/01/29 08:35:39;;;;;;;7.97;2.90;;;;;;;;;;7322827;19;20329;-34
2024/01/29 08:38:09;;;;;;;6.87;2.80;;;;;;;;;;7345622;19;20304;-34
2024/01/29 08:40:41;;;;;;;8.55;2.70;;;;;;;;;;7323278;19;20317;-34
2024/01/29 08:43:11;;;;;;;8.15;3.20;;;;;;;;;;7341103;19;20856;-34
2024/01/29 08:45:41;;;;;;;8.30;3.03;;;;;;;;;;7321149;19;20348;-34
2024/01/29 08:48:10;;;;;;;7.10;2.60;;;;;;;;;;7342265;19;20317;-35
2024/01/29 08:50:40;;;;;;;6.38;2.53;;;;;;;;;;7318935;19;20365;-34
2024/01/29 08:53:09;;;;;;;6.80;2.80;;;;;;;;;;7344063;19;20297;-34
2024/01/29 08:55:41;;;;;;;7.10;2.50;;;;;;;;;;7322364;19;20469;-37
2024/01/29 08:58:11;;;;;;;7.05;2.80;;;;;;;;;;7344224;19;20881;-35
2024/01/29 09:00:40;;;;;;;6.97;2.80;;;;;;;;;;7319046;19;20340;-34
2024/01/29 09:03:11;;;;;;;7.18;3.10;;;;;;;;;;7344264;19;20305;-34
2024/01/29 09:05:42;;;;;;;7.55;3.10;;;;;;;;;;7322406;19;20413;-34
2024/01/29 09:08:11;;;;;;;7.15;2.75;;;;;;;;;;7343814;19;20322;-34
2024/01/29 09:10:50;;;;;;;6.70;2.85;;;;;;;;;;7321632;19;20396;-36
2024/01/29 09:13:19;;;;;;;8.25;3.38;;;;;;;;;;7342584;19;20516;-34
2024/01/29 09:15:49;;;;;;;10.40;3.10;;;;;;;;;;7323894;19;20869;-34
2024/01/29 09:18:18;;;;;;;10.00;4.25;;;;;;;;;;7342315;19;21007;-34
2024/01/29 09:20:48;;;;;;;8.35;3.25;;;;;;;;;;7320397;19;20337;-35
2024/01/29 09:23:18;;;;;;;7.30;3.50;;;;;;;;;;7343956;19;20358;-35
2024/01/29 09:25:50;;;;;;;7.10;3.00;;;;;;;;;;7323027;19;20293;-34
2024/01/29 09:28:20;;;;;;;9.98;3.13;;;;;;;;;;7344710;19;20321;-34
2024/01/29 09:30:49;;;;;;;9.13;4.05;;;;;;;;;;7322004;19;20380;-34
2024/01/29 09:33:19;;;;;;;12.65;4.80;;;;;;;;;;7341641;19;20332;-35
2024/01/29 09:35:51;;;;;;;7.70;3.47;;;;;;;;;;7322922;19;20325;-34
2024/01/29 09:38:20;;;;;;;11.60;3.88;;;;;;;;;;7343336;19;20348;-34
2024/01/29 09:40:52;;;;;;;10.82;4.72;;;;;;;;;;7323254;19;20323;-34
2024/01/29 09:43:23;;;;;;;9.82;3.30;;;;;;;;;;7333675;19;20321;-35
2024/01/29 09:45:53;;;;;;;10.80;4.90;;;;;;;;;;7343484;19;20297;-35
2024/01/29 09:48:23;;;;;;;7.47;3.10;;;;;;;;;;7329468;19;21153;-34
2024/01/29 09:50:53;;;;;;;9.20;3.25;;;;;;;;;;7343626;19;20319;-34
2024/01/29 09:53:24;;;;;;;7.55;2.90;;;;;;;;;;7331104;19;20747;-34
2024/01/29 09:55:56;;;;;;;8.63;3.60;;;;;;;;;;7342624;19;20833;-34
2024/01/29 09:58:42;;;;;;;11.48;4.85;;;;;;;;;;7319783;19;20357;-34
2024/01/29 10:01:12;;;;;;;9.32;3.50;;;;;;;;;;7342959;19;20389;-34
2024/01/29 10:03:42;;;;;;;11.40;3.97;;;;;;;;;;7325161;19;20372;-34
2024/01/29 10:06:12;;;;;;;17.87;7.90;;;;;;;;;;7349484;19;20453;-34
2024/01/29 10:08:41;;;;;;;7.75;3.45;;;;;;;;;;7326777;19;20329;-36
2024/01/29 10:11:13;;;;;;;8.75;3.97;;;;;;;;;;7349692;19;20305;-35
2024/01/29 10:13:43;;;;;;;11.20;4.30;;;;;;;;;;7323639;19;20284;-34
2024/01/29 10:16:13;;;;;;;14.63;6.18;;;;;;;;;;7349723;19;20416;-34
2024/01/29 10:18:42;;;;;;;13.83;5.83;;;;;;;;;;7326607;19;20224;-34
2024/01/29 10:21:12;;;;;;;8.80;3.33;;;;;;;;;;7349956;19;20328;-34
2024/01/29 10:23:41;;;;;;;21.47;7.20;;;;;;;;;;7327776;19;20206;-35
2024/01/29 10:26:17;;;;;;;21.03;6.40;;;;;;;;;;7350012;19;20823;-34
2024/01/29 10:28:46;;;;;;;6.37;2.70;;;;;;;;;;7327819;19;20399;-34
2024/01/29 10:31:17;;;;;;;5.60;2.43;;;;;;;;;;7351526;19;20507;-35
2024/01/29 10:33:47;;;;;;;6.13;2.20;;;;;;;;;;7327802;19;21119;-34
2024/01/29 10:36:17;;;;;;;22.93;7.00;;;;;;;;;;7351282;19;20428;-35
2024/01/29 10:38:48;;;;;;;24.13;7.13;;;;;;;;;;7327887;19;20488;-35
2024/01/29 10:41:21;;;;;;;12.37;3.60;;;;;;;;;;7351399;19;20433;-34
2024/01/29 10:43:51;;;;;;;23.17;9.05;;;;;;;;;;7327252;19;20367;-33
2024/01/29 10:46:21;;;;;;;16.43;6.20;;;;;;;;;;7351096;19;20198;-34
2024/01/29 10:48:51;;;;;;;12.07;4.47;;;;;;;;;;7328755;19;20397;-34
2024/01/29 10:51:21;;;;;;;19.93;8.20;;;;;;;;;;7349825;19;20437;-34
2024/01/29 10:53:52;;;;;;;54.88;17.33;;;;;;;;;;7327302;19;20648;-34
2024/01/29 10:56:24;;;;;;;42.75;15.18;;;;;;;;;;7349995;19;20344;-33
2024/01/29 10:58:58;;;;;;;20.40;5.30;;;;;;;;;;7329785;19;20265;-34
2024/01/29 11:01:33;;;;;;;8.90;2.60;;;;;;;;;;7327232;19;20455;-34
2024/01/29 11:04:03;;;;;;;10.23;3.13;;;;;;;;;;7348827;19;20414;-34
2024/01/29 11:06:35;;;;;;;9.27;2.60;;;;;;;;;;7326508;19;20964;-34
2024/01/29 11:09:08;;;;;;;6.53;2.40;;;;;;;;;;7350196;19;20410;-33
2024/01/29 11:11:41;;;;;;;7.53;2.63;;;;;;;;;;7324119;19;20803;-34
2024/01/29 11:14:11;;;;;;;7.90;2.40;;;;;;;;;;7346593;19;20488;-34
2024/01/29 11:16:40;;;;;;;58.67;19.83;;;;;;;;;;7323295;19;21012;-34
2024/01/29 11:19:10;;;;;;;29.03;10.10;;;;;;;;;;7347809;19;20403;-34
2024/01/29 11:21:45;;;;;;;11.67;3.30;;;;;;;;;;7327078;19;20454;-34
2024/01/29 11:24:15;;;;;;;8.23;3.08;;;;;;;;;;7348382;19;20709;-35
2024/01/29 11:26:47;;;;;;;8.48;3.35;;;;;;;;;;7324498;19;20301;-35
2024/01/29 11:29:21;;;;;;;6.95;2.80;;;;;;;;;;7348010;19;20329;-35
2024/01/29 11:31:51;;;;;;;6.05;3.00;;;;;;;;;;7325620;19;20305;-35
2024/01/29 11:34:27;;;;;;;5.95;2.58;;;;;;;;;;7345541;19;20778;-34
2024/01/29 11:36:57;;;;;;;5.88;2.50;;;;;;;;;;7325291;19;20380;-35
2024/01/29 11:39:27;;;;;;;6.80;3.10;;;;;;;;;;7324020;19;20325;-35
2024/01/29 11:42:00;;;;;;;7.90;3.20;;;;;;;;;;7346410;19;20833;-34
2024/01/29 11:44:30;;;;;;;6.93;2.90;;;;;;;;;;7323370;19;20360;-34
2024/01/29 11:46:59;;;;;;;5.68;2.70;;;;;;;;;;7345489;19;20301;-35
2024/01/29 11:49:29;;;;;;;7.13;2.90;;;;;;;;;;7323469;19;20334;-34
2024/01/29 11:51:59;;;;;;;7.60;2.90;;;;;;;;;;7346096;19;20332;-34
2024/01/29 11:54:28;;;;;;;6.93;3.10;;;;;;;;;;7323352;19;20857;-34
2024/01/29 11:57:14;;;;;;;7.20;3.30;;;;;;;;;;7345897;19;20309;-36
2024/01/29 11:59:49;;;;;;;11.23;5.00;;;;;;;;;;7325174;19;20296;-34
2024/01/29 12:02:18;;;;;;;11.57;3.90;;;;;;;;;;7346380;19;20335;-35
2024/01/29 12:04:48;;;;;;;9.47;3.57;;;;;;;;;;7324603;19;20307;-34
2024/01/29 12:07:18;;;;;;;6.88;3.10;;;;;;;;;;7345831;19;20340;-34
2024/01/29 12:09:48;;;;;;;7.10;3.40;;;;;;;;;;7324932;19;20300;-34
2024/01/29 12:12:20;;;;;;;7.55;3.08;;;;;;;;;;7346123;19;20339;-34
2024/01/29 12:14:52;;;;;;;11.90;4.90;;;;;;;;;;7324396;19;20664;-34
2024/01/29 12:17:21;;;;;;;10.75;4.10;;;;;;;;;;7344441;19;20407;-34
2024/01/29 12:19:52;;;;;;;9.45;4.10;;;;;;;;;;7319234;19;20307;-35
2024/01/29 12:22:21;;;;;;;10.88;4.65;;;;;;;;;;7345670;19;20333;-34
2024/01/29 12:24:51;;;;;;;7.15;3.70;;;;;;;;;;7325334;19;20293;-34
2024/01/29 12:27:24;;;;;;;7.43;3.80;;;;;;;;;;7345906;19;20321;-34
2024/01/29 12:29:54;;;;;;;8.90;3.80;;;;;;;;;;7324654;19;20301;-36
2024/01/29 12:32:24;;;;;;;7.97;3.67;;;;;;;;;;7325965;19;20743;-33
2024/01/29 12:34:53;;;;;;;10.63;4.95;;;;;;;;;;7344500;19;20856;-35
2024/01/29 12:37:25;;;;;;;11.25;4.50;;;;;;;;;;7333479;19;20880;-34
2024/01/29 12:39:56;;;;;;;7.30;3.35;;;;;;;;;;7345224;19;20317;-35
2024/01/29 12:42:29;;;;;;;7.90;3.70;;;;;;;;;;7323045;19;20324;-34
2024/01/29 12:45:02;;;;;;;8.43;3.50;;;;;;;;;;7344528;19;20675;-35
2024/01/29 12:47:32;;;;;;;7.50;3.80;;;;;;;;;;7321172;19;20712;-35
2024/01/29 12:50:02;;;;;;;8.88;3.95;;;;;;;;;;7344539;19;20654;-35
2024/01/29 12:52:32;;;;;;;53.83;21.03;;;;;;;;;;7321638;19;20387;-35
2024/01/29 12:55:02;;;;;;;9.93;4.45;;;;;;;;;;7345428;19;20865;-34
2024/01/29 12:57:34;;;;;;;8.77;4.50;;;;;;;;;;7321137;19;20333;-35
2024/01/29 13:00:04;;;;;;;8.70;4.10;;;;;;;;;;7345146;19;21169;-34
2024/01/29 13:02:34;;;;;;;18.38;8.10;;;;;;;;;;7321759;19;20336;-35
2024/01/29 13:05:04;;;;;;;12.65;5.88;;;;;;;;;;7344422;19;20314;-35
2024/01/29 13:07:34;;;;;;;9.90;4.60;;;;;;;;;;7321303;19;20321;-35
2024/01/29 13:10:04;;;;;;;11.77;6.00;;;;;;;;;;7343938;19;20864;-35
2024/01/29 13:12:36;;;;;;;10.27;4.40;;;;;;;;;;7321256;19;20370;-34
2024/01/29 13:15:06;;;;;;;8.07;4.10;;;;;;;;;;7343626;19;20293;-35
2024/01/29 13:17:38;;;;;;;11.90;5.05;;;;;;;;;;7319549;19;20323;-34
2024/01/29 13:20:11;;;;;;;14.60;6.83;;;;;;;;;;7344542;19;20304;-34
2024/01/29 13:22:41;;;;;;;11.15;4.95;;;;;;;;;;7321154;19;20352;-35
2024/01/29 13:25:10;;;;;;;10.55;5.22;;;;;;;;;;7343868;19;20311;-35
2024/01/29 13:27:43;;;;;;;15.05;6.70;;;;;;;;;;7321167;19;20334;-37
2024/01/29 13:30:13;;;;;;;20.02;8.35;;;;;;;;;;7344035;19;20301;-35
2024/01/29 13:32:42;;;;;;;15.57;7.00;;;;;;;;;;7321858;19;20798;-35
2024/01/29 13:35:11;;;;;;;18.67;7.70;;;;;;;;;;7341090;19;20297;-36
2024/01/29 13:37:41;;;;;;;18.40;7.95;;;;;;;;;;7313847;19;20347;-35
2024/01/29 13:40:11;;;;;;;13.15;6.20;;;;;;;;;;7342480;19;20516;-35
2024/01/29 13:42:43;;;;;;;14.25;5.95;;;;;;;;;;7320923;19;20402;-35
2024/01/29 13:45:12;;;;;;;7.97;3.65;;;;;;;;;;7343141;19;20346;-35
2024/01/29 13:47:42;;;;;;;9.68;3.95;;;;;;;;;;7319565;19;20705;-35
2024/01/29 13:50:12;;;;;;;8.00;3.53;;;;;;;;;;7343774;19;20312;-35
2024/01/29 13:52:42;;;;;;;8.77;4.90;;;;;;;;;;7321002;19;20314;-36
2024/01/29 13:55:12;;;;;;;8.60;3.92;;;;;;;;;;7343540;19;20324;-34
2024/01/29 13:57:44;;;;;;;24.88;10.30;;;;;;;;;;7319831;19;20332;-34
2024/01/29 14:00:14;;;;;;;29.08;11.50;;;;;;;;;;7342535;19;20336;-35
2024/01/29 14:02:44;;;;;;;11.20;5.10;;;;;;;;;;7320128;19;20466;-35
2024/01/29 14:05:13;;;;;;;11.48;5.70;;;;;;;;;;7341465;19;20728;-34
2024/01/29 14:07:43;;;;;;;9.05;4.30;;;;;;;;;;7319319;19;20293;-35
2024/01/29 14:10:13;;;;;;;9.37;4.83;;;;;;;;;;7341942;19;20336;-35
2024/01/29 14:12:45;;;;;;;11.45;5.50;;;;;;;;;;7318845;19;20290;-35
2024/01/29 14:15:14;;;;;;;7.63;3.80;;;;;;;;;;7341691;19;20391;-34
2024/01/29 14:19:30;;;;;;;897.73;468.57;;;;;;;;;;7357124;19;20819;-48
2024/01/29 14:22:02;;;;;;;865.43;448.20;;;;;;;;;;7379601;19;20809;-50
2024/01/29 14:24:32;;;;;;;865.27;451.87;;;;;;;;;;7358358;19;20423;-47
2024/01/29 14:27:02;;;;;;;857.67;448.50;;;;;;;;;;7379393;19;20423;-51
2024/01/29 14:29:31;;;;;;;854.03;454.13;;;;;;;;;;7355903;19;20449;-45
2024/01/29 14:32:01;;;;;;;841.83;450.97;;;;;;;;;;7379716;19;20414;-45
2024/01/29 14:34:32;;;;;;;1146.83;656.67;;;;;;;;;;7354129;19;20452;-48
2024/01/29 14:37:02;;;;;;;1288.73;729.10;;;;;;;;;;7378551;19;20407;-49
2024/01/29 14:39:32;;;;;;;1194.63;693.27;;;;;;;;;;7358418;19;20425;-47
2024/01/29 14:42:01;;;;;;;1063.72;658.20;;;;;;;;;;7377943;19;20301;-47
2024/01/29 14:44:31;;;;;;;1022.85;648.20;;;;;;;;;;7354909;19;20319;-47
2024/01/29 14:47:03;;;;;;;1012.35;647.15;;;;;;;;;;7377119;19;20355;-50
2024/01/29 14:49:35;;;;;;;983.45;635.95;;;;;;;;;;7355395;19;20320;-49
2024/01/29 14:52:04;;;;;;;970.03;628.67;;;;;;;;;;7378180;19;20304;-51
2024/01/29 14:54:35;;;;;;;966.72;632.97;;;;;;;;;;7354877;19;20444;-48
2024/01/29 14:57:06;;;;;;;939.28;612.97;;;;;;;;;;7376867;19;20304;-53